createdAt,value
2019-06-01T00:00:46.350Z,3.10
2019-06-01T00:03:15.276Z,2.47
2019-06-01T00:05:44.606Z,2.97
2019-06-01T00:08:13.627Z,2.60
2019-06-01T00:10:42.970Z,3.83
2019-06-01T00:13:12.053Z,3.20
2019-06-01T00:15:41.921Z,2.30
2019-06-01T00:18:10.759Z,2.77
2019-06-01T00:20:40.072Z,2.80
2019-06-01T00:23:08.951Z,2.77
2019-06-01T00:25:37.793Z,3.40
2019-06-01T00:28:06.765Z,3.13
2019-06-01T00:30:35.641Z,2.67
2019-06-01T00:33:04.447Z,2.90
2019-06-01T00:35:33.345Z,3.23
2019-06-01T00:38:02.134Z,3.53
2019-06-01T00:40:35.394Z,3.80
2019-06-01T00:43:04.471Z,2.77
2019-06-01T00:45:33.374Z,4.23
2019-06-01T00:48:02.181Z,3.47
2019-06-01T00:50:31.049Z,4.50
2019-06-01T00:52:59.882Z,3.77
2019-06-01T00:55:28.774Z,5.33
2019-06-01T00:57:57.595Z,4.80
2019-06-01T01:00:40.681Z,3.40
2019-06-01T01:02:57.142Z,6.20
2019-06-01T01:05:26.322Z,3.13
2019-06-01T01:07:55.401Z,3.13
2019-06-01T01:10:24.207Z,2.87
2019-06-01T01:13:12.849Z,2.70
2019-06-01T01:15:41.810Z,2.83
2019-06-01T01:18:10.775Z,3.33
2019-06-01T01:20:39.581Z,2.77
2019-06-01T01:23:08.388Z,2.40
2019-06-01T01:25:37.199Z,4.67
2019-06-01T01:28:06.202Z,2.67
2019-06-01T01:30:35.013Z,2.60
2019-06-01T01:33:04.205Z,2.60
2019-06-01T01:35:33.030Z,4.63
2019-06-01T01:38:01.868Z,4.47
2019-06-01T01:40:30.876Z,3.37
2019-06-01T01:42:59.677Z,2.80
2019-06-01T01:45:28.515Z,5.07
2019-06-01T01:47:57.405Z,3.87
2019-06-01T01:50:27.156Z,3.00
2019-06-01T01:52:57.094Z,4.67
2019-06-01T01:55:26.202Z,2.87
2019-06-01T01:57:55.567Z,2.50
2019-06-01T02:00:39.351Z,3.90
2019-06-01T02:03:08.508Z,3.97
2019-06-01T02:05:37.707Z,3.07
2019-06-01T02:08:06.728Z,2.90
2019-06-01T02:10:35.585Z,3.60
2019-06-01T02:13:05.092Z,2.53
2019-06-01T02:15:36.110Z,4.47
2019-06-01T02:18:05.861Z,2.67
2019-06-01T02:20:35.161Z,3.30
2019-06-01T02:23:04.618Z,4.57
2019-06-01T02:25:33.424Z,3.63
2019-06-01T02:28:03.392Z,3.20
2019-06-01T02:30:32.314Z,4.20
2019-06-01T02:33:02.402Z,3.93
2019-06-01T02:35:31.884Z,3.63
2019-06-01T02:38:02.800Z,3.27
2019-06-01T02:40:31.613Z,5.47
2019-06-01T02:43:01.393Z,2.80
2019-06-01T02:45:31.058Z,3.03
2019-06-01T02:48:01.557Z,3.53
2019-06-01T02:50:30.782Z,3.87
2019-06-01T02:52:59.651Z,3.60
2019-06-01T02:55:28.559Z,3.53
2019-06-01T02:57:58.045Z,3.83
2019-06-01T03:00:48.387Z,4.03
2019-06-01T03:03:17.433Z,2.77
2019-06-01T03:05:46.340Z,3.17
2019-06-01T03:08:16.141Z,4.40
2019-06-01T03:10:45.377Z,2.80
2019-06-01T03:13:14.167Z,4.17
2019-06-01T03:15:43.213Z,3.97
2019-06-01T03:18:13.052Z,3.37
2019-06-01T03:20:41.908Z,5.63
2019-06-01T03:23:10.696Z,4.23
2019-06-01T03:25:39.609Z,3.57
2019-06-01T03:28:08.510Z,3.20
2019-06-01T03:30:45.420Z,3.60
2019-06-01T03:33:14.403Z,3.57
2019-06-01T03:35:43.413Z,4.17
2019-06-01T03:38:12.391Z,2.90
2019-06-01T03:40:41.290Z,4.00
2019-06-01T03:43:11.299Z,3.77
2019-06-01T03:45:40.364Z,3.50
2019-06-01T03:48:09.268Z,3.73
2019-06-01T03:50:38.181Z,3.73
2019-06-01T03:53:26.418Z,3.13
2019-06-01T03:55:55.316Z,4.70
2019-06-01T03:58:24.270Z,4.63
2019-06-01T04:00:53.110Z,3.00
2019-06-01T04:03:21.973Z,3.27
2019-06-01T04:05:51.144Z,3.50
2019-06-01T04:08:20.134Z,3.93
2019-06-01T04:10:49.036Z,5.13
2019-06-01T04:13:17.817Z,3.63
2019-06-01T04:15:46.645Z,3.77
2019-06-01T04:18:15.506Z,4.73
2019-06-01T04:20:44.528Z,4.57
2019-06-01T04:23:13.317Z,3.57
2019-06-01T04:25:42.217Z,3.33
2019-06-01T04:28:13.953Z,6.37
2019-06-01T04:30:42.735Z,3.80
2019-06-01T04:33:11.561Z,3.67
2019-06-01T04:35:40.345Z,5.37
2019-06-01T04:38:09.302Z,4.43
2019-06-01T04:40:38.348Z,4.90
2019-06-01T04:43:07.890Z,6.17
2019-06-01T04:45:36.795Z,4.07
2019-06-01T04:48:06.402Z,4.53
2019-06-01T04:50:35.419Z,4.90
2019-06-01T04:53:04.669Z,4.10
2019-06-01T04:55:33.521Z,3.90
2019-06-01T04:58:02.351Z,3.67
2019-06-01T05:00:31.387Z,3.70
2019-06-01T05:03:05.209Z,4.60
2019-06-01T05:05:30.817Z,4.80
2019-06-01T05:07:59.677Z,3.97
2019-06-01T05:10:28.540Z,4.97
2019-06-01T05:12:57.596Z,4.97
2019-06-01T05:15:26.405Z,3.93
2019-06-01T05:17:55.427Z,4.70
2019-06-01T05:20:24.243Z,4.07
2019-06-01T05:22:53.045Z,3.87
2019-06-01T05:25:21.840Z,4.47
2019-06-01T05:27:50.640Z,4.87
2019-06-01T05:30:19.741Z,4.53
2019-06-01T05:32:48.645Z,4.27
2019-06-01T05:35:18.002Z,4.33
2019-06-01T05:37:46.931Z,6.10
2019-06-01T05:40:16.668Z,4.33
2019-06-01T05:42:45.640Z,5.13
2019-06-01T05:45:15.077Z,4.07
2019-06-01T05:47:44.325Z,6.20
2019-06-01T05:50:14.281Z,4.57
2019-06-01T05:52:43.278Z,3.57
2019-06-01T05:55:12.917Z,5.93
2019-06-01T05:57:41.833Z,6.03
2019-06-01T06:00:11.353Z,4.83
2019-06-01T06:02:40.221Z,5.57
2019-06-01T06:05:10.502Z,4.47
2019-06-01T06:07:39.618Z,6.33
2019-06-01T06:10:10.148Z,3.60
2019-06-01T06:12:39.040Z,4.93
2019-06-01T06:15:07.914Z,3.50
2019-06-01T06:17:36.749Z,4.30
2019-06-01T06:20:08.483Z,2.30
2019-06-01T06:22:37.317Z,2.10
2019-06-01T06:25:09.942Z,3.07
2019-06-01T06:27:38.863Z,3.33
2019-06-01T06:30:08.505Z,3.40
2019-06-01T06:32:37.381Z,2.40
2019-06-01T06:35:06.325Z,2.10
2019-06-01T06:37:35.185Z,2.77
2019-06-01T06:40:06.802Z,3.20
2019-06-01T06:42:35.595Z,1.93
2019-06-01T06:45:05.173Z,2.13
2019-06-01T06:47:34.029Z,2.57
2019-06-01T06:50:03.201Z,1.90
2019-06-01T06:52:32.110Z,2.93
2019-06-01T06:55:01.013Z,1.50
2019-06-01T06:57:29.800Z,2.27
2019-06-01T06:59:58.574Z,3.63
2019-06-01T07:02:27.408Z,1.90
2019-06-01T07:04:56.229Z,2.27
2019-06-01T07:07:25.814Z,2.13
2019-06-01T07:09:54.891Z,2.60
2019-06-01T07:12:23.709Z,2.50
2019-06-01T07:14:52.517Z,1.97
2019-06-01T07:17:21.560Z,2.60
2019-06-01T07:19:50.412Z,2.70
2019-06-01T07:22:19.790Z,5.73
2019-06-01T07:24:48.753Z,2.80
2019-06-01T07:27:17.603Z,3.20
2019-06-01T07:29:46.655Z,2.07
2019-06-01T07:32:15.542Z,2.00
2019-06-01T07:34:44.363Z,1.80
2019-06-01T07:37:13.188Z,1.87
2019-06-01T07:39:42.218Z,1.60
2019-06-01T07:42:11.309Z,2.00
2019-06-01T07:44:40.158Z,1.87
2019-06-01T07:47:09.055Z,2.10
2019-06-01T07:49:37.998Z,1.83
2019-06-01T07:52:12.819Z,2.67
2019-06-01T07:54:37.492Z,2.63
2019-06-01T07:57:06.299Z,2.57
2019-06-01T07:59:35.183Z,2.40
2019-06-01T08:02:04.132Z,3.43
2019-06-01T08:04:50.553Z,2.23
2019-06-01T08:07:03.631Z,1.80
2019-06-01T08:09:32.553Z,2.03
2019-06-01T08:12:01.446Z,2.43
2019-06-01T08:14:30.609Z,2.93
2019-06-01T08:16:59.556Z,2.13
2019-06-01T08:19:28.368Z,2.70
2019-06-01T08:21:57.259Z,2.80
2019-06-01T08:24:26.352Z,2.60
2019-06-01T08:26:55.308Z,2.80
2019-06-01T08:29:24.665Z,2.63
2019-06-01T08:31:55.847Z,3.43
2019-06-01T08:34:24.751Z,2.50
2019-06-01T08:36:53.616Z,1.80
2019-06-01T08:39:23.493Z,2.07
2019-06-01T08:41:52.562Z,1.93
2019-06-01T08:44:21.461Z,2.40
2019-06-01T08:46:50.515Z,2.53
2019-06-01T08:49:19.524Z,3.20
2019-06-01T08:51:48.418Z,3.60
2019-06-01T08:54:17.280Z,5.77
2019-06-01T08:56:46.258Z,3.03
2019-06-01T08:59:15.169Z,2.10
2019-06-01T09:01:44.037Z,3.60
2019-06-01T09:04:12.883Z,2.17
2019-06-01T09:06:41.740Z,2.77
2019-06-01T09:09:11.931Z,2.13
2019-06-01T09:11:44.413Z,5.70
2019-06-01T09:14:13.406Z,3.13
2019-06-01T09:16:42.270Z,2.03
2019-06-01T09:19:11.759Z,3.50
2019-06-01T09:22:10.314Z,3.57
2019-06-01T09:24:37.597Z,1.90
2019-06-01T09:27:06.481Z,1.63
2019-06-01T09:29:36.159Z,2.57
2019-06-01T09:32:10.318Z,1.97
2019-06-01T09:34:36.515Z,1.73
2019-06-01T09:37:05.814Z,2.50
2019-06-01T09:39:35.084Z,3.00
2019-06-01T09:42:04.169Z,2.17
2019-06-01T09:44:33.570Z,2.13
2019-06-01T09:47:02.567Z,1.35
2019-06-01T09:49:32.602Z,1.40
2019-06-01T09:52:02.332Z,1.85
2019-06-01T09:54:33.093Z,1.70
2019-06-01T09:57:02.247Z,1.52
2019-06-01T09:59:31.963Z,1.73
2019-06-01T10:02:00.978Z,1.57
2019-06-01T10:04:30.192Z,1.37
2019-06-01T10:07:02.063Z,1.60
2019-06-01T10:09:31.516Z,1.62
2019-06-01T10:12:00.823Z,3.20
2019-06-01T10:14:30.066Z,3.62
2019-06-01T10:16:59.115Z,2.83
2019-06-01T10:19:27.967Z,4.20
2019-06-01T10:21:57.335Z,1.75
2019-06-01T10:24:26.303Z,2.10
2019-06-01T10:26:55.159Z,1.70
2019-06-01T10:29:23.981Z,2.33
2019-06-01T10:31:52.874Z,2.22
2019-06-01T10:34:21.719Z,1.37
2019-06-01T10:36:50.602Z,2.08
2019-06-01T10:39:19.853Z,1.47
2019-06-01T10:41:48.885Z,3.83
2019-06-01T10:44:18.103Z,2.00
2019-06-01T10:46:46.927Z,1.87
2019-06-01T10:49:15.708Z,1.70
2019-06-01T10:51:44.531Z,5.55
2019-06-01T10:54:13.724Z,7.10
2019-06-01T10:56:42.646Z,4.65
2019-06-01T10:59:11.468Z,9.38
2019-06-01T11:01:40.863Z,2.02
2019-06-01T11:04:09.841Z,2.60
2019-06-01T11:06:45.157Z,7.08
2019-06-01T11:09:10.301Z,5.40
2019-06-01T11:11:39.194Z,2.33
2019-06-01T11:14:08.051Z,4.05
2019-06-01T11:16:37.367Z,7.50
2019-06-01T11:19:06.359Z,5.30
2019-06-01T11:21:35.549Z,5.35
2019-06-01T11:24:04.989Z,2.55
2019-06-01T11:26:35.489Z,2.25
2019-06-01T11:29:04.713Z,1.50
2019-06-01T11:31:34.054Z,1.57
2019-06-01T11:34:03.103Z,1.12
2019-06-01T11:36:31.899Z,2.58
2019-06-01T11:39:00.738Z,2.90
2019-06-01T11:41:30.051Z,1.45
2019-06-01T11:43:59.049Z,4.87
2019-06-01T11:46:27.921Z,1.60
2019-06-01T11:48:56.997Z,4.30
2019-06-01T11:51:25.914Z,3.58
2019-06-01T11:53:54.907Z,2.87
2019-06-01T11:56:23.706Z,1.98
2019-06-01T11:58:52.657Z,3.10
2019-06-01T12:01:21.662Z,3.75
2019-06-01T12:03:50.460Z,1.87
2019-06-01T12:06:19.371Z,1.10
2019-06-01T12:08:48.613Z,1.77
2019-06-01T12:11:17.516Z,1.75
2019-06-01T12:13:46.563Z,6.05
2019-06-01T12:16:15.521Z,3.25
2019-06-01T12:18:44.748Z,1.72
2019-06-01T12:21:13.638Z,1.55
2019-06-01T12:23:43.195Z,1.35
2019-06-01T12:26:12.249Z,2.30
2019-06-01T12:28:41.562Z,1.57
2019-06-01T12:31:10.638Z,1.00
2019-06-01T12:33:39.893Z,0.93
2019-06-01T12:36:08.942Z,3.08
2019-06-01T12:38:51.343Z,1.95
2019-06-01T12:41:22.049Z,3.15
2019-06-01T12:44:02.597Z,0.78
2019-06-01T12:46:31.469Z,1.40
2019-06-01T12:49:00.350Z,1.45
2019-06-01T12:51:29.516Z,1.12
2019-06-01T12:53:58.322Z,0.85
2019-06-01T12:56:27.252Z,1.90
2019-06-01T12:58:56.976Z,1.20
2019-06-01T13:01:25.911Z,2.50
2019-06-01T13:03:54.800Z,0.85
2019-06-01T13:06:23.617Z,0.60
2019-06-01T13:08:53.066Z,1.05
2019-06-01T13:11:22.084Z,0.90
2019-06-01T13:13:51.426Z,0.68
2019-06-01T13:16:20.476Z,0.82
2019-06-01T13:18:49.550Z,0.80
2019-06-01T13:21:18.561Z,0.57
2019-06-01T13:23:47.577Z,0.90
2019-06-01T13:26:16.723Z,1.50
2019-06-01T13:28:46.114Z,1.00
2019-06-01T13:31:15.113Z,0.88
2019-06-01T13:33:44.480Z,0.65
2019-06-01T13:36:13.403Z,2.85
2019-06-01T13:38:42.492Z,1.60
2019-06-01T13:41:11.542Z,0.70
2019-06-01T13:43:40.427Z,0.72
2019-06-01T13:46:09.230Z,0.78
2019-06-01T13:48:38.113Z,0.75
2019-06-01T13:51:07.135Z,0.42
2019-06-01T13:53:36.384Z,0.60
2019-06-01T13:56:05.355Z,0.75
2019-06-01T13:58:34.287Z,0.68
2019-06-01T14:01:03.150Z,0.62
2019-06-01T14:03:32.095Z,0.60
2019-06-01T14:06:01.218Z,0.90
2019-06-01T14:08:30.043Z,0.60
2019-06-01T14:10:58.841Z,0.72
2019-06-01T14:13:28.028Z,1.37
2019-06-01T14:15:56.864Z,0.42
2019-06-01T14:18:25.827Z,0.60
2019-06-01T14:20:55.852Z,0.70
2019-06-01T14:23:24.853Z,2.30
2019-06-01T14:25:54.285Z,0.50
2019-06-01T14:28:23.294Z,0.80
2019-06-01T14:30:52.318Z,1.67
2019-06-01T14:33:21.192Z,1.10
2019-06-01T14:35:50.393Z,1.40
2019-06-01T14:38:19.453Z,2.50
2019-06-01T14:40:48.941Z,0.78
2019-06-01T14:43:18.037Z,2.58
2019-06-01T14:45:47.363Z,0.78
2019-06-01T14:48:16.457Z,0.68
2019-06-01T14:50:45.327Z,0.85
2019-06-01T14:53:14.315Z,0.82
2019-06-01T14:55:43.267Z,2.15
2019-06-01T14:58:12.254Z,3.05
2019-06-01T15:00:41.098Z,0.70
2019-06-01T15:03:10.748Z,1.70
2019-06-01T15:05:39.658Z,0.70
2019-06-01T15:08:09.116Z,2.25
2019-06-01T15:10:38.193Z,0.90
2019-06-01T15:13:07.275Z,1.10
2019-06-01T15:15:36.221Z,0.80
2019-06-01T15:18:05.467Z,0.60
2019-06-01T15:20:34.418Z,0.50
2019-06-01T15:23:03.669Z,1.10
2019-06-01T15:25:32.767Z,1.25
2019-06-01T15:28:03.806Z,0.80
2019-06-01T15:30:32.235Z,1.62
2019-06-01T15:33:03.190Z,1.92
2019-06-01T15:35:31.861Z,1.12
2019-06-01T15:38:03.612Z,1.70
2019-06-01T15:40:31.384Z,0.88
2019-06-01T15:43:01.320Z,0.50
2019-06-01T15:45:30.607Z,1.27
2019-06-01T15:47:59.801Z,1.05
2019-06-01T15:50:28.816Z,0.57
2019-06-01T15:52:59.239Z,1.20
2019-06-01T15:55:28.548Z,1.07
2019-06-01T15:57:58.495Z,1.25
2019-06-01T16:00:27.517Z,0.85
2019-06-01T16:02:56.919Z,0.72
2019-06-01T16:05:26.204Z,0.53
2019-06-01T16:07:55.213Z,0.60
2019-06-01T16:10:24.182Z,0.90
2019-06-01T16:12:53.419Z,0.60
2019-06-01T16:15:22.377Z,1.32
2019-06-01T16:17:51.428Z,0.80
2019-06-01T16:20:21.618Z,1.10
2019-06-01T16:22:50.461Z,1.95
2019-06-01T16:25:19.300Z,2.42
2019-06-01T16:27:48.391Z,1.20
2019-06-01T16:30:17.248Z,1.25
2019-06-01T16:32:46.174Z,1.12
2019-06-01T16:35:15.184Z,0.93
2019-06-01T16:37:44.361Z,1.00
2019-06-01T16:40:13.313Z,1.30
2019-06-01T16:42:42.224Z,0.95
2019-06-01T16:45:11.210Z,0.80
2019-06-01T16:47:40.175Z,0.93
2019-06-01T16:50:09.206Z,1.07
2019-06-01T16:52:38.136Z,2.17
2019-06-01T16:55:10.016Z,0.90
2019-06-01T16:57:38.838Z,1.30
2019-06-01T17:00:09.314Z,7.03
2019-06-01T17:02:38.296Z,3.90
2019-06-01T17:05:07.318Z,2.00
2019-06-01T17:07:36.219Z,0.85
2019-06-01T17:10:21.762Z,0.95
2019-06-01T17:12:43.032Z,0.50
2019-06-01T17:15:08.723Z,0.70
2019-06-01T17:17:37.576Z,0.80
2019-06-01T17:20:07.358Z,0.90
2019-06-01T17:22:36.507Z,1.45
2019-06-01T17:25:06.330Z,1.45
2019-06-01T17:27:35.142Z,2.20
2019-06-01T17:30:07.821Z,2.10
2019-06-01T17:32:34.978Z,0.75
2019-06-01T17:35:05.057Z,0.60
2019-06-01T17:37:34.032Z,0.60
2019-06-01T17:40:04.586Z,1.72
2019-06-01T17:42:33.661Z,2.77
2019-06-01T17:45:04.176Z,0.70
2019-06-01T17:47:33.154Z,2.47
2019-06-01T17:50:02.693Z,4.00
2019-06-01T17:52:32.667Z,1.40
2019-06-01T17:55:03.091Z,1.65
2019-06-01T17:57:32.443Z,0.85
2019-06-01T18:00:01.788Z,1.95
2019-06-01T18:02:30.741Z,1.05
2019-06-01T18:04:59.566Z,0.90
2019-06-01T18:07:28.388Z,1.25
2019-06-01T18:09:57.256Z,4.92
2019-06-01T18:12:26.063Z,2.30
2019-06-01T18:14:54.960Z,0.90
2019-06-01T18:17:23.851Z,0.68
2019-06-01T18:19:52.717Z,1.00
2019-06-01T18:22:21.942Z,3.33
2019-06-01T18:24:51.093Z,1.70
2019-06-01T18:27:19.939Z,1.12
2019-06-01T18:29:49.753Z,1.05
2019-06-01T18:32:18.743Z,1.42
2019-06-01T18:34:47.544Z,1.30
2019-06-01T18:37:16.597Z,1.57
2019-06-01T18:39:48.096Z,1.62
2019-06-01T18:42:18.731Z,1.10
2019-06-01T18:44:46.961Z,2.10
2019-06-01T18:47:31.324Z,1.10
2019-06-01T18:49:46.862Z,1.35
2019-06-01T18:52:16.290Z,1.32
2019-06-01T18:54:45.589Z,1.17
2019-06-01T18:57:20.480Z,1.15
2019-06-01T18:59:45.078Z,1.75
2019-06-01T19:02:14.608Z,1.60
2019-06-01T19:04:43.550Z,2.95
2019-06-01T19:07:13.354Z,3.27
2019-06-01T19:09:42.389Z,1.27
2019-06-01T19:12:11.402Z,1.60
2019-06-01T19:14:44.075Z,1.57
2019-06-01T19:17:14.343Z,2.40
2019-06-01T19:19:43.230Z,1.85
2019-06-01T19:22:12.531Z,2.33
2019-06-01T19:24:41.498Z,2.65
2019-06-01T19:27:10.741Z,2.67
2019-06-01T19:29:39.787Z,1.95
2019-06-01T19:32:08.860Z,4.33
2019-06-01T19:34:37.886Z,2.60
2019-06-01T19:37:07.012Z,6.28
2019-06-01T19:39:36.274Z,2.53
2019-06-01T19:42:05.274Z,2.77
2019-06-01T19:44:38.826Z,2.90
2019-06-01T19:47:09.754Z,4.22
2019-06-01T19:49:55.144Z,3.85
2019-06-01T19:52:24.056Z,3.08
2019-06-01T19:54:52.912Z,5.70
2019-06-01T19:57:23.761Z,5.03
2019-06-01T19:59:52.365Z,5.28
2019-06-01T20:02:32.712Z,7.40
2019-06-01T20:04:51.693Z,5.58
2019-06-01T20:07:21.423Z,6.27
2019-06-01T20:09:50.428Z,7.00
2019-06-01T20:12:20.531Z,6.23
2019-06-01T20:14:49.645Z,6.13
2019-06-01T20:17:22.942Z,6.37
2019-06-01T20:19:49.284Z,6.60
2019-06-01T20:22:19.033Z,6.23
2019-06-01T20:24:48.056Z,4.90
2019-06-01T20:27:17.465Z,4.97
2019-06-01T20:29:46.663Z,4.92
2019-06-01T20:32:15.902Z,7.20
2019-06-01T20:34:44.803Z,9.63
2019-06-01T20:37:13.970Z,6.03
2019-06-01T20:39:42.828Z,5.07
2019-06-01T20:42:23.312Z,6.03
2019-06-01T20:44:42.191Z,4.53
2019-06-01T20:47:12.502Z,4.70
2019-06-01T20:49:41.521Z,7.53
2019-06-01T20:52:10.522Z,6.90
2019-06-01T20:54:39.389Z,5.00
2019-06-01T20:57:08.197Z,8.87
2019-06-01T20:59:40.955Z,4.47
2019-06-01T21:02:09.794Z,5.33
2019-06-01T21:04:38.695Z,6.57
2019-06-01T21:07:07.707Z,5.50
2019-06-01T21:09:36.614Z,6.13
2019-06-01T21:12:05.481Z,5.33
2019-06-01T21:14:34.764Z,5.83
2019-06-01T21:17:03.746Z,7.37
2019-06-01T21:19:32.617Z,6.40
2019-06-01T21:22:01.558Z,6.10
2019-06-01T21:24:30.512Z,5.50
2019-06-01T21:26:59.507Z,4.77
2019-06-01T21:29:28.478Z,5.17
2019-06-01T21:31:57.395Z,5.43
2019-06-01T21:34:26.451Z,5.03
2019-06-01T21:36:55.416Z,4.17
2019-06-01T21:39:24.219Z,4.67
2019-06-01T21:41:53.178Z,6.23
2019-06-01T21:44:21.961Z,4.17
2019-06-01T21:46:50.887Z,5.63
2019-06-01T21:49:20.489Z,3.67
2019-06-01T21:51:52.797Z,5.73
2019-06-01T21:54:20.236Z,3.27
2019-06-01T21:56:49.063Z,5.70
2019-06-01T21:59:18.531Z,3.57
2019-06-01T22:01:47.832Z,5.60
2019-06-01T22:04:16.835Z,4.10
2019-06-01T22:06:46.568Z,3.97
2019-06-01T22:09:17.040Z,2.90
2019-06-01T22:11:46.306Z,3.73
2019-06-01T22:14:15.231Z,6.87
2019-06-01T22:16:44.267Z,3.47
2019-06-01T22:19:13.073Z,3.10
2019-06-01T22:21:42.175Z,4.63
2019-06-01T22:24:11.026Z,3.07
2019-06-01T22:26:39.840Z,5.23
2019-06-01T22:29:08.887Z,4.17
2019-06-01T22:31:37.804Z,3.57
2019-06-01T22:34:06.772Z,6.10
2019-06-01T22:36:35.710Z,3.53
2019-06-01T22:39:07.251Z,5.43
2019-06-01T22:41:36.093Z,4.07
2019-06-01T22:44:05.266Z,4.13
2019-06-01T22:46:34.417Z,3.57
2019-06-01T22:49:03.336Z,4.30
2019-06-01T22:51:33.268Z,4.83
2019-06-01T22:54:02.546Z,3.20
2019-06-01T22:56:31.589Z,3.20
2019-06-01T22:59:04.502Z,4.40
2019-06-01T23:01:33.419Z,3.37
2019-06-01T23:04:02.451Z,3.30
2019-06-01T23:06:31.567Z,3.93
2019-06-01T23:09:00.477Z,2.33
2019-06-01T23:11:29.647Z,3.53
2019-06-01T23:13:58.524Z,2.27
2019-06-01T23:16:27.657Z,2.60
2019-06-01T23:18:56.633Z,2.43
2019-06-01T23:21:25.747Z,2.33
2019-06-01T23:23:54.804Z,2.40
2019-06-01T23:26:24.117Z,3.37
2019-06-01T23:28:53.157Z,2.30
2019-06-01T23:31:22.284Z,3.67
2019-06-01T23:33:51.164Z,2.80
2019-06-01T23:36:20.239Z,2.30
2019-06-01T23:38:49.081Z,2.93
2019-06-01T23:41:17.887Z,2.37
2019-06-01T23:43:46.755Z,2.47
2019-06-01T23:46:15.639Z,2.60
2019-06-01T23:48:44.514Z,2.83
2019-06-01T23:51:13.466Z,2.20
2019-06-01T23:53:42.516Z,2.40
2019-06-01T23:56:11.315Z,3.20
2019-06-01T23:58:40.389Z,2.30
